Terminal Aerodrome Forecast
Issued by NWS

Home | Current Version | Previous Version | Text Only | Print | Product List | Glossary On
Versions: 1 2 3 4 5 6 7 8 9 10 11 12 13 14 15
086
FTUS46 KSEW 201725
TAFPAE
TAF
KPAE 201725Z 2018/2118 15018G23KT P6SM -SHRA BKN009 BKN015
     FM202000 20014G22KT P6SM -SHRA SCT030 BKN050 OVC100
     FM210100 18008KT P6SM SCT035 BKN080 OVC120
     FM211100 14008KT P6SM -RA BKN040 OVC080
     FM211500 15010KT 6SM -RA BKN020 OVC040=

USA.gov is the U.S. government's official web portal to all federal, state and local government web resources and services.